Flight Track Log - Related Links

Times and Time Zones

All times are in EDT time to prevent confusion due to time zone crossing. See the SWA34 flight status page for this flight to view local times or setup timezone preferences in your user account.

Time Position Orientation Groundspeed Altitude Reporting Facility
EDT Latitude Longitude Course Direction KTS MPH feet Rate Location/Type
Sun 03:37:16 PM 29.6361 -95.2289 102° East 206 237 2,400  Level Houston Center
Sun 03:38:05 PM 29.6842 -95.2350 354° North 250 288 4,200 2,919 Climbing Houston Center
Sun 03:39:07 PM 29.7581 -95.2553 347° North 268 308 7,800 3,048 Climbing Houston Center
Sun 03:40:09 PM 29.8319 -95.2756 347° North 270 311 10,500 2,371 Climbing Houston Center
Sun 03:41:11 PM 29.9222 -95.3003 347° North 323 372 12,700 2,371 Climbing Houston Center
Sun 03:42:13 PM 30.0372 -95.3319 347° North 347 399 15,400 2,855 Climbing Houston Center
Sun 03:43:15 PM 30.1381 -95.3603 346° North 366 421 18,600 2,613 Climbing Houston Center
Sun 03:44:17 PM 30.2336 -95.3867 347° North 359 413 20,800 1,968 Climbing Houston Center
Sun 03:45:20 PM 30.3339 -95.4150 346° North 364 419 22,700 1,728 Climbing Houston Center
Sun 03:46:22 PM 30.4378 -95.4439 347° North 376 433 24,400 1,597 Climbing Houston Center
Sun 03:47:24 PM 30.5458 -95.4731 347° North 392 451 26,000 1,548 Climbing Houston Center
Sun 03:48:26 PM 30.6769 -95.5083 347° North 402 463 27,600 1,258 Climbing Houston Center
Sun 03:49:28 PM 30.7986 -95.5356 349° North 428 493 28,600 1,258 Climbing Houston Center
Sun 03:50:30 PM 30.9214 -95.5622 349° North 443 510 30,200 1,548 Climbing Houston Center
Sun 03:51:32 PM 31.0392 -95.5894 349° North 431 496 31,800 871 Climbing Houston Center
Sun 03:52:34 PM 31.1597 -95.6167 349° North 437 503 32,000 113 Climbing Houston Center
Sun 03:53:18 PM 31.2489 -95.6369 349° North 437 503 32,000 -808 Level Fort Worth Center
Sun 03:54:18 PM 31.3661 -95.6714 346° North 435 501 30,600 -1,450 Descending Fort Worth Center
Sun 03:55:18 PM 31.4778 -95.7422 332° Northwest 421 484 29,100 -1,400 Descending Fort Worth Center
Sun 03:56:18 PM 31.5811 -95.8111 330° Northwest 413 475 27,800 -1,500 Descending Fort Worth Center
Sun 03:57:18 PM 31.6717 -95.8731 330° Northwest 398 458 26,100 -1,950 Descending Fort Worth Center
Sun 03:58:18 PM 31.7622 -95.9350 330° Northwest 388 447 23,900 -2,150 Descending Fort Worth Center
Sun 03:59:18 PM 31.8547 -95.9947 331° Northwest 383 441 21,800 -2,150 Descending Fort Worth Center
Sun 04:00:18 PM 31.9472 -96.0569 330° Northwest 374 430 19,600 -2,050 Descending Fort Worth Center
Sun 04:01:18 PM 32.0186 -96.1075 329° Northwest 362 417 17,700 -1,950 Descending Fort Worth Center
Sun 04:02:18 PM 32.1047 -96.1600 333° Northwest 348 400 15,700 -1,950 Descending Fort Worth Center
Sun 04:03:18 PM 32.1828 -96.2181 328° Northwest 335 386 13,800 -1,950 Descending Fort Worth Center
Sun 04:04:18 PM 32.2708 -96.2683 334° Northwest 330 380 11,800 -1,700 Descending Fort Worth Center
Sun 04:05:18 PM 32.3381 -96.3119 331° Northwest 312 359 10,400 -1,150 Descending Fort Worth Center
Sun 04:06:18 PM 32.4136 -96.3578 333° Northwest 290 334 9,500 -700 Descending Fort Worth Center
Sun 04:07:18 PM 32.4744 -96.3939 333° Northwest 276 318 9,000 -700 Descending Fort Worth Center
Sun 04:08:18 PM 32.5500 -96.4400 333° Northwest 276 318 8,100 -1,150 Descending Fort Worth Center
Sun 04:09:18 PM 32.6108 -96.4761 333° Northwest 276 318 6,700 -1,600 Descending Fort Worth Center
Sun 04:10:18 PM 32.6861 -96.5247 331° Northwest 269 310 4,900 -1,300 Descending Fort Worth Center
Sun 04:11:18 PM 32.7408 -96.5761 322° Northwest 282 325 4,100 -450 Descending Fort Worth Center
Sun 04:12:18 PM 32.7997 -96.6422 317° Northwest 271 312 4,000 -200 Descending Fort Worth Center
Sun 04:13:18 PM 32.8419 -96.7014 310° West 265 305 3,700 -545 Descending Fort Worth Center
Sun 04:14:08 PM 32.8833 -96.7500 315° West 236 272 3,000 -382 Descending Dallas / Fort Worth TRACON
Sun 04:15:08 PM 32.9167 -96.8167 301° West 216 249 3,000 -250 Level Dallas / Fort Worth TRACON
Sun 04:16:08 PM 32.9167 -96.8667 270° West 184 212 2,500 -700 Descending Dallas / Fort Worth TRACON
Sun 04:17:08 PM 32.8833 -96.9000 220° Southwest 143 165 1,600 -850 Descending Dallas / Fort Worth TRACON
Sun 04:18:08 PM 32.8667 -96.8667 121° Southeast 144 166 800 -800 Descending Dallas / Fort Worth TRACON
Sun 04:20:00 PM 32.8471 -96.8518 157° South  Level Estimated

Login

Don't have an account? Register now (free) for customized features, flight alerts, and more!